Colleyville, Texas
Current Conditions -  °F | °C
As of 10:53 AM on Saturday 25 Oct 2014 (Local Time) from KDFW Reporting Station
Clear Clear  
Wind Chill: 76°   Ceiling: Unl
Heat Index: 76°   Visibility: 10mi
Dew Point: 60°   Wind: 9mph
Humidity: 58%   Direction: 200°SSW
Pressure: 30.14"   Gusts: NA
Location:  32.89°N, 97.16°W
Report Text: KDFW 251553Z 20008KT 10SM CLR 24/16 A3014 RMK AO2 SLP200 T02440156
Loading
Personal Weather Stations






























Interactive Weather Map
Tropical Storm Tracking
New forecast layout! Learn more

10-Day Weather Forecast

Advertisements
Track Severe Weather on mobile